Time,TemperatureF,DewpointF,PressureIn,WindDirection,WindDirectionDegrees,WindSpeedMPH,WindSpeedGustMPH,Humidity,HourlyPrecipIn,Conditions,Clouds,dailyrainin,SolarRadiationWatts/m^2,SoftwareType,DateUTC
2013-01-06 00:00:00,49.6,37.1,30.14,WSW,248,0.0,0.0,62,0.00,,,0.00,0.00,VWS V14.00,2013-01-06 06:00:00,
2013-01-06 00:30:00,50.2,37.3,30.15,WSW,248,0.0,0.0,61,0.00,,,0.00,0.00,VWS V14.00,2013-01-06 06:30:00,
2013-01-06 01:00:00,50.2,37.7,30.14,WSW,248,0.0,0.0,62,0.00,,,0.00,0.00,VWS V14.00,2013-01-06 07:00:00,
2013-01-06 01:30:00,50.2,38.1,30.14,WSW,248,0.0,0.0,63,0.00,,,0.00,0.00,VWS V14.00,2013-01-06 07:30:00,
2013-01-06 02:00:00,50.1,38.4,30.13,WSW,248,0.0,0.0,64,0.00,,,0.00,0.00,VWS V14.00,2013-01-06 08:00:00,
2013-01-06 02:30:00,50.1,38.8,30.12,WSW,248,0.0,0.0,65,0.00,,,0.00,0.00,VWS V14.00,2013-01-06 08:30:00,
2013-01-06 03:00:00,49.8,39.3,30.11,WSW,248,0.0,0.0,67,0.00,,,0.00,0.00,VWS V14.00,2013-01-06 09:00:00,
2013-01-06 03:30:00,49.2,40.2,30.11,WSW,248,0.0,0.0,71,0.00,,,0.00,0.00,VWS V14.00,2013-01-06 09:30:00,
2013-01-06 04:00:00,48.3,41.4,30.10,WSW,248,0.0,0.0,77,0.00,,,0.00,0.00,VWS V14.00,2013-01-06 10:00:00,
2013-01-06 04:30:00,48.0,42.5,30.11,WSW,248,0.0,0.0,81,0.00,,,0.00,0.00,VWS V14.00,2013-01-06 10:30:00,
2013-01-06 05:00:00,47.7,43.1,30.11,WSW,248,0.0,0.0,84,0.00,,,0.00,0.00,VWS V14.00,2013-01-06 11:00:00,
2013-01-06 05:30:00,47.3,43.6,30.11,WSW,248,0.0,0.0,87,0.00,,,0.00,0.00,VWS V14.00,2013-01-06 11:30:00,
2013-01-06 06:00:00,46.8,43.7,30.13,WSW,248,0.0,0.0,89,0.00,,,0.00,0.00,VWS V14.00,2013-01-06 12:00:00,
2013-01-06 06:30:00,45.7,43.5,30.15,WSW,248,0.0,0.0,92,0.00,,,0.00,0.00,VWS V14.00,2013-01-06 12:30:00,
2013-01-06 07:00:00,45.1,43.2,30.14,WSW,248,0.0,0.0,93,0.00,,,0.00,3.00,VWS V14.00,2013-01-06 13:00:00,
2013-01-06 07:30:00,45.2,43.6,30.17,WSW,248,0.0,0.0,94,0.00,,,0.00,8.00,VWS V14.00,2013-01-06 13:30:00,
2013-01-06 08:00:00,44.6,43.3,30.19,WSW,248,0.0,0.0,95,0.03,,,0.03,10.00,VWS V14.00,2013-01-06 14:00:00,
2013-01-06 08:30:00,44.5,43.7,30.17,WSW,248,0.0,0.0,97,0.06,,,0.06,16.00,VWS V14.00,2013-01-06 14:30:00,
2013-01-06 09:00:00,44.8,44.3,30.19,WSW,248,0.0,0.0,98,0.12,,,0.12,48.00,VWS V14.00,2013-01-06 15:00:00,
2013-01-06 09:30:00,45.1,44.6,30.17,WSW,248,0.0,0.0,98,0.13,,,0.16,41.00,VWS V14.00,2013-01-06 15:30:00,
2013-01-06 10:00:00,45.4,45.1,30.19,WSW,248,0.0,0.0,99,0.11,,,0.17,59.00,VWS V14.00,2013-01-06 16:00:00,
2013-01-06 10:30:00,45.7,45.4,30.18,WSW,248,0.0,0.0,99,0.06,,,0.18,90.00,VWS V14.00,2013-01-06 16:30:00,
2013-01-06 11:00:00,46.2,45.9,30.18,WSW,248,0.0,0.0,99,0.02,,,0.18,67.00,VWS V14.00,2013-01-06 17:00:00,
2013-01-06 11:30:00,47.3,47.0,30.17,WSW,248,0.0,0.0,99,0.01,,,0.18,88.00,VWS V14.00,2013-01-06 17:30:00,
2013-01-06 12:00:00,47.6,47.3,30.15,WSW,248,0.0,0.0,99,0.01,,,0.19,82.00,VWS V14.00,2013-01-06 18:00:00,
2013-01-06 12:30:00,47.9,47.6,30.14,WSW,248,0.0,0.0,99,0.01,,,0.19,127.00,VWS V14.00,2013-01-06 18:30:00,
2013-01-06 13:00:00,48.3,48.0,30.13,WSW,248,0.0,0.0,99,0.01,,,0.19,119.00,VWS V14.00,2013-01-06 19:00:00,
2013-01-06 13:30:00,48.8,48.5,30.13,WSW,248,0.0,0.0,99,0.00,,,0.19,138.00,VWS V14.00,2013-01-06 19:30:00,
2013-01-06 14:00:00,49.1,48.6,30.13,WSW,248,0.0,0.0,98,0.00,,,0.19,98.00,VWS V14.00,2013-01-06 20:00:00,
2013-01-06 14:30:00,49.5,48.7,30.14,WSW,248,0.0,0.0,97,0.00,,,0.19,76.00,VWS V14.00,2013-01-06 20:30:00,
2013-01-06 15:00:00,49.8,48.7,30.13,WSW,248,0.0,0.0,96,0.00,,,0.19,67.00,VWS V14.00,2013-01-06 21:00:00,
2013-01-06 15:30:00,50.5,49.1,30.14,WSW,248,0.0,0.0,95,0.00,,,0.19,88.00,VWS V14.00,2013-01-06 21:30:00,
2013-01-06 16:00:00,50.7,48.8,30.14,WSW,248,0.0,0.0,93,0.00,,,0.19,60.00,VWS V14.00,2013-01-06 22:00:00,
2013-01-06 16:30:00,50.5,48.0,30.14,WSW,248,0.0,0.0,91,0.00,,,0.19,23.00,VWS V14.00,2013-01-06 22:30:00,
2013-01-06 17:00:00,50.4,47.6,30.15,WSW,248,0.0,0.0,90,0.00,,,0.19,0.00,VWS V14.00,2013-01-06 23:00:00,
2013-01-06 17:30:00,49.9,47.1,30.16,WSW,248,0.0,0.0,90,0.00,,,0.19,0.00,VWS V14.00,2013-01-06 23:30:00,
2013-01-06 18:00:00,49.1,46.3,30.17,WSW,248,0.0,0.0,90,0.00,,,0.19,0.00,VWS V14.00,2013-01-07 00:00:00,
2013-01-06 18:30:00,48.6,46.4,30.19,WSW,248,0.0,0.0,92,0.00,,,0.19,0.00,VWS V14.00,2013-01-07 00:30:00,
2013-01-06 19:00:00,48.8,46.6,30.20,WSW,248,0.0,0.0,92,0.00,,,0.19,0.00,VWS V14.00,2013-01-07 01:00:00,
2013-01-06 19:30:00,48.6,45.8,30.20,WSW,248,0.0,0.0,90,0.00,,,0.19,0.00,VWS V14.00,2013-01-07 01:30:00,
2013-01-06 20:00:00,47.7,44.9,30.20,WSW,248,0.0,0.0,90,0.00,,,0.19,0.00,VWS V14.00,2013-01-07 02:00:00,
2013-01-06 20:30:00,46.8,44.3,30.20,WSW,248,0.0,0.0,91,0.00,,,0.19,0.00,VWS V14.00,2013-01-07 02:30:00,
2013-01-06 21:00:00,46.1,43.9,30.21,WSW,248,0.0,0.0,92,0.00,,,0.19,0.00,VWS V14.00,2013-01-07 03:00:00,
2013-01-06 21:30:00,45.4,43.2,30.21,WSW,248,0.0,0.0,92,0.00,,,0.19,0.00,VWS V14.00,2013-01-07 03:30:00,
2013-01-06 22:00:00,44.8,42.9,30.22,WSW,248,0.0,0.0,93,0.00,,,0.19,0.00,VWS V14.00,2013-01-07 04:00:00,
2013-01-06 22:30:00,44.1,42.5,30.22,WSW,248,0.0,0.0,94,0.00,,,0.19,0.00,VWS V14.00,2013-01-07 04:30:00,
2013-01-06 23:00:00,43.5,41.9,30.22,WSW,248,0.0,0.0,94,0.00,,,0.19,0.00,VWS V14.00,2013-01-07 05:00:00,
2013-01-06 23:30:00,43.1,41.8,30.22,WSW,248,0.0,0.0,95,0.00,,,0.19,0.00,VWS V14.00,2013-01-07 05:30:00,